Time;durP1;ratioP1;P1;durP2;ratioP2;P2;SDS_P1;SDS_P2;PMS_P1;PMS_P2;Temp;Humidity;BMP_temperature;BMP_pressure;BME280_temperature;BME280_humidity;BME280_pressure;Samples;Min_cycle;Max_cycle;Signal;HPM_P1;HPM_P2
2021/04/21 00:01:39;;;;;;;18.67;13.13;;;9.60;99.90;;;;;;4952864;28;20035;-66
2021/04/21 00:04:07;;;;;;;21.48;14.50;;;9.50;99.90;;;;;;4953965;28;20035;-65
2021/04/21 00:06:34;;;;;;;23.33;15.48;;;9.50;99.90;;;;;;4953682;28;20020;-66
2021/04/21 00:09:01;;;;;;;21.90;14.90;;;9.50;99.90;;;;;;4953924;28;20102;-66
2021/04/21 00:11:28;;;;;;;20.73;14.50;;;9.40;99.90;;;;;;4952776;28;20079;-65
2021/04/21 00:13:54;;;;;;;22.05;14.15;;;9.30;99.90;;;;;;4954066;28;20023;-66
2021/04/21 00:16:19;;;;;;;22.60;14.18;;;9.20;99.90;;;;;;4952630;28;20498;-66
2021/04/21 00:18:46;;;;;;;30.30;14.48;;;9.20;99.90;;;;;;4952399;28;20035;-65
2021/04/21 00:21:13;;;;;;;20.80;14.75;;;9.10;99.90;;;;;;4953862;28;20071;-66
2021/04/21 00:23:39;;;;;;;21.20;14.40;;;9.30;99.90;;;;;;4954070;28;20042;-66
2021/04/21 00:26:10;;;;;;;21.15;14.52;;;9.30;99.90;;;;;;4953718;28;20420;-63
2021/04/21 00:28:37;;;;;;;20.35;13.70;;;9.30;99.90;;;;;;4936660;29;20489;-65
2021/04/21 00:31:06;;;;;;;22.80;14.48;;;9.20;99.90;;;;;;4952029;29;20024;-66
2021/04/21 00:33:33;;;;;;;24.00;13.80;;;9.20;99.90;;;;;;4952338;29;20121;-65
2021/04/21 00:36:01;;;;;;;23.85;15.50;;;9.10;99.90;;;;;;4951843;29;20095;-67
2021/04/21 00:38:27;;;;;;;21.00;14.80;;;9.00;99.90;;;;;;4952050;29;20312;-66
2021/04/21 00:41:02;;;;;;;20.92;14.05;;;8.90;99.90;;;;;;4951984;28;20019;-65
2021/04/21 00:43:46;;;;;;;22.23;14.05;;;8.80;99.90;;;;;;4952775;28;20039;-65
2021/04/21 00:46:30;;;;;;;19.42;14.20;;;8.90;99.90;;;;;;4953271;28;20030;-65
2021/04/21 00:49:05;;;;;;;22.92;15.50;;;8.70;99.90;;;;;;4951895;28;20397;-66
2021/04/21 00:51:49;;;;;;;21.25;14.35;;;8.70;99.90;;;;;;4951754;28;20023;-65
2021/04/21 00:54:38;;;;;;;22.65;14.15;;;8.60;99.90;;;;;;4952244;28;20023;-65
2021/04/21 00:57:31;;;;;;;23.05;15.15;;;8.50;99.90;;;;;;4951551;29;20137;-65
2021/04/21 01:00:14;;;;;;;22.13;14.07;;;8.50;99.90;;;;;;4963810;23;20055;-64
2021/04/21 01:02:50;;;;;;;24.77;14.52;;;8.50;99.90;;;;;;4968637;28;20066;-66
2021/04/21 01:05:21;;;;;;;22.85;14.38;;;8.40;99.90;;;;;;4953888;29;20062;-65
2021/04/21 01:07:50;;;;;;;21.90;14.43;;;8.40;99.90;;;;;;4953938;29;20036;-65
2021/04/21 01:10:17;;;;;;;25.05;13.90;;;8.40;99.90;;;;;;4953584;29;20023;-65
2021/04/21 01:12:48;;;;;;;21.50;13.70;;;8.40;99.90;;;;;;4985045;28;20023;-65
2021/04/21 01:15:16;;;;;;;20.05;13.75;;;8.30;99.90;;;;;;4969025;28;20035;-64
2021/04/21 01:17:44;;;;;;;22.63;13.27;;;8.40;99.90;;;;;;4953959;28;20027;-64
2021/04/21 01:20:39;;;;;;;32.17;13.90;;;8.40;99.90;;;;;;4953645;28;20031;-65
2021/04/21 01:23:32;;;;;;;21.13;12.88;;;8.40;99.90;;;;;;4953020;28;20394;-65
2021/04/21 01:26:09;;;;;;;21.65;13.52;;;8.30;99.90;;;;;;4968508;28;20552;-66
2021/04/21 01:28:39;;;;;;;24.95;13.98;;;8.20;99.90;;;;;;4953660;29;20032;-64
2021/04/21 01:31:07;;;;;;;22.40;14.20;;;8.30;99.90;;;;;;4984668;28;20027;-65
2021/04/21 01:33:33;;;;;;;22.00;14.07;;;8.20;99.90;;;;;;4984846;28;20023;-65
2021/04/21 01:36:08;;;;;;;29.48;14.77;;;8.20;99.90;;;;;;4953661;28;20114;-65
2021/04/21 01:38:37;;;;;;;22.00;13.48;;;8.10;99.90;;;;;;4984623;28;20027;-65
2021/04/21 01:41:15;;;;;;;21.17;13.30;;;8.00;99.90;;;;;;4984715;28;20024;-65
2021/04/21 01:43:48;;;;;;;23.20;14.38;;;8.00;99.90;;;;;;4984777;28;20090;-65
2021/04/21 01:46:16;;;;;;;26.33;13.93;;;7.90;99.90;;;;;;4984356;28;20094;-65
2021/04/21 01:48:43;;;;;;;22.58;13.88;;;7.90;99.90;;;;;;4953320;28;20280;-65
2021/04/21 01:51:44;;;;;;;22.50;13.05;;;8.00;99.90;;;;;;4953732;28;20032;-64
2021/04/21 01:54:16;;;;;;;21.85;12.95;;;8.20;99.90;;;;;;4984680;28;20482;-64
2021/04/21 01:57:01;;;;;;;20.48;12.98;;;8.00;99.90;;;;;;4956871;28;20421;-64
2021/04/21 01:59:50;;;;;;;20.45;13.13;;;8.00;99.90;;;;;;4988035;28;20031;-65
2021/04/21 02:02:32;;;;;;;23.27;13.40;;;7.90;99.90;;;;;;4988189;28;20082;-65
2021/04/21 02:05:12;;;;;;;22.92;13.73;;;8.00;99.90;;;;;;4988149;28;20405;-65
2021/04/21 02:08:27;;;;;;;22.42;12.90;;;8.10;99.90;;;;;;4954063;29;20172;-66
2021/04/21 02:11:11;;;;;;;24.42;13.52;;;8.00;99.90;;;;;;4938268;29;20031;-65
2021/04/21 02:13:49;;;;;;;25.52;13.00;;;7.90;99.90;;;;;;4987903;28;20405;-64
2021/04/21 02:16:20;;;;;;;21.92;12.98;;;7.80;99.90;;;;;;4956748;28;20039;-64
2021/04/21 02:18:57;;;;;;;22.70;13.40;;;7.70;99.90;;;;;;4956931;28;20035;-65
2021/04/21 02:21:36;;;;;;;26.10;14.02;;;7.80;99.90;;;;;;4956861;28;20374;-66
2021/04/21 02:24:39;;;;;;;32.03;13.00;;;7.80;99.90;;;;;;4987663;28;20031;-66
2021/04/21 02:27:16;;;;;;;22.00;12.63;;;7.80;99.90;;;;;;4971432;28;20311;-64
2021/04/21 02:30:13;;;;;;;22.45;13.60;;;7.80;99.90;;;;;;4971350;28;20078;-65
2021/04/21 02:33:00;;;;;;;23.02;12.88;;;7.80;99.90;;;;;;4956492;28;20452;-65
2021/04/21 02:35:36;;;;;;;23.58;13.93;;;7.80;99.90;;;;;;4971442;28;20027;-65
2021/04/21 02:38:35;;;;;;;23.90;14.15;;;7.70;99.90;;;;;;4956530;28;20038;-65
2021/04/21 02:41:13;;;;;;;24.15;13.90;;;7.70;99.90;;;;;;4956241;28;20031;-65
2021/04/21 02:44:02;;;;;;;22.38;13.95;;;7.70;99.90;;;;;;4956462;28;20047;-65
2021/04/21 02:46:37;;;;;;;27.17;13.20;;;7.60;99.90;;;;;;4971202;28;20505;-65
2021/04/21 02:49:08;;;;;;;25.00;14.50;;;7.60;99.90;;;;;;4970853;28;20118;-65
2021/04/21 02:52:01;;;;;;;24.83;14.93;;;7.70;99.90;;;;;;4971100;28;20597;-65
2021/04/21 02:54:42;;;;;;;25.80;14.43;;;7.60;99.90;;;;;;4956164;29;20031;-65
2021/04/21 02:57:28;;;;;;;26.13;14.13;;;7.60;99.90;;;;;;4970857;28;20038;-66
2021/04/21 03:00:06;;;;;;;23.77;14.48;;;7.60;99.90;;;;;;4986694;28;20075;-65
2021/04/21 03:02:41;;;;;;;24.02;13.80;;;7.50;99.90;;;;;;4955907;28;20046;-66
2021/04/21 03:05:22;;;;;;;24.20;14.40;;;7.40;99.90;;;;;;4986911;28;20027;-61
2021/04/21 03:08:09;;;;;;;26.23;13.65;;;7.30;99.90;;;;;;4986560;28;20028;-65
2021/04/21 03:11:02;;;;;;;23.35;13.88;;;7.20;99.90;;;;;;4970763;28;20023;-64
2021/04/21 03:13:35;;;;;;;25.20;14.95;;;7.20;99.90;;;;;;4986936;28;20155;-65
2021/04/21 03:16:07;;;;;;;23.17;12.95;;;7.20;99.90;;;;;;4955682;28;20106;-65
2021/04/21 03:18:34;;;;;;;22.63;13.85;;;7.20;99.90;;;;;;4955633;28;20015;-65
2021/04/21 03:21:30;;;;;;;23.77;13.90;;;7.10;99.90;;;;;;4955491;28;20051;-65
2021/04/21 03:24:21;;;;;;;26.65;14.15;;;7.00;99.90;;;;;;4950279;29;20035;-65
2021/04/21 03:26:49;;;;;;;26.52;13.82;;;6.90;99.90;;;;;;4951707;29;20032;-64
2021/04/21 03:29:25;;;;;;;23.83;13.55;;;6.80;99.90;;;;;;4955293;28;20457;-65
2021/04/21 03:31:53;;;;;;;23.88;13.48;;;6.80;99.90;;;;;;4955415;28;20520;-65
2021/04/21 03:34:20;;;;;;;23.38;14.40;;;6.80;99.90;;;;;;4955449;28;20035;-65
2021/04/21 03:36:46;;;;;;;25.52;14.27;;;6.80;99.90;;;;;;4954839;28;20027;-65
2021/04/21 03:39:12;;;;;;;22.67;13.27;;;6.80;99.90;;;;;;4986090;28;20030;-66
2021/04/21 03:41:38;;;;;;;25.02;13.63;;;6.70;99.90;;;;;;4955205;28;20168;-65
2021/04/21 03:44:05;;;;;;;26.10;14.50;;;6.70;99.90;;;;;;4986033;28;20031;-65
2021/04/21 03:46:32;;;;;;;26.73;13.00;;;6.70;99.90;;;;;;4954960;28;20035;-66
2021/04/21 03:49:00;;;;;;;26.58;13.05;;;6.70;99.90;;;;;;4954933;28;20074;-66
2021/04/21 03:51:26;;;;;;;24.13;13.30;;;6.70;99.90;;;;;;4986111;28;20028;-64
2021/04/21 03:53:53;;;;;;;25.90;14.23;;;6.60;99.90;;;;;;4955338;28;20051;-66
2021/04/21 03:56:23;;;;;;;24.83;13.77;;;6.70;99.90;;;;;;4986259;28;20046;-63
2021/04/21 03:58:51;;;;;;;27.48;14.77;;;6.70;99.90;;;;;;4985903;28;20027;-64
2021/04/21 04:01:25;;;;;;;23.30;14.65;;;6.60;99.90;;;;;;4970063;28;20035;-64
2021/04/21 04:03:58;;;;;;;24.05;13.93;;;6.70;99.90;;;;;;4954927;28;20118;-66
2021/04/21 04:06:33;;;;;;;24.70;12.85;;;6.50;99.90;;;;;;4954536;28;20027;-66
2021/04/21 04:09:05;;;;;;;25.45;13.90;;;6.60;99.90;;;;;;4953456;29;20486;-65
2021/04/21 04:11:38;;;;;;;26.38;13.82;;;6.60;99.90;;;;;;4985814;28;20031;-64
2021/04/21 04:14:14;;;;;;;24.33;13.63;;;6.60;99.90;;;;;;4954862;29;20023;-65
2021/04/21 04:16:43;;;;;;;24.50;14.57;;;6.60;99.90;;;;;;4954373;28;20134;-65
2021/04/21 04:19:11;;;;;;;23.52;12.18;;;6.60;99.90;;;;;;4984769;28;20027;-64
2021/04/21 04:21:38;;;;;;;27.15;13.48;;;6.60;99.90;;;;;;4985429;28;20031;-65
2021/04/21 04:24:16;;;;;;;24.27;14.13;;;6.60;99.90;;;;;;4985518;28;20119;-66
2021/04/21 04:26:43;;;;;;;26.10;13.52;;;6.60;99.90;;;;;;4985433;28;20042;-66
2021/04/21 04:29:10;;;;;;;27.45;13.07;;;6.60;99.90;;;;;;4954100;28;20027;-66
2021/04/21 04:31:37;;;;;;;41.00;18.80;;;6.70;99.90;;;;;;4952871;28;20490;-65
2021/04/21 04:34:04;;;;;;;26.23;13.70;;;6.80;99.90;;;;;;4953225;28;20047;-65
2021/04/21 04:36:33;;;;;;;25.70;13.98;;;6.80;99.90;;;;;;4985497;28;20397;-66
2021/04/21 04:38:59;;;;;;;;;;;6.80;99.90;;;;;;4985375;28;20513;-64
2021/04/21 04:41:28;;;;;;;24.95;13.40;;;6.80;99.90;;;;;;4952487;29;19914;-64
2021/04/21 04:43:56;;;;;;;26.75;14.70;;;6.80;99.90;;;;;;4985301;28;20034;-65
2021/04/21 04:46:27;;;;;;;27.67;14.80;;;6.80;99.90;;;;;;4984950;28;20031;-67
2021/04/21 04:48:59;;;;;;;26.27;14.20;;;6.90;99.90;;;;;;4984581;28;20283;-66
2021/04/21 04:51:28;;;;;;;30.98;15.48;;;6.90;99.90;;;;;;4985213;28;20170;-65
2021/04/21 04:53:54;;;;;;;28.77;14.27;;;6.90;99.90;;;;;;4984945;28;20027;-66
2021/04/21 04:56:20;;;;;;;23.13;13.30;;;6.90;99.90;;;;;;4984761;28;20436;-65
2021/04/21 04:58:47;;;;;;;24.80;14.52;;;7.00;99.90;;;;;;4952152;28;20038;-65
2021/04/21 05:01:13;;;;;;;27.75;14.05;;;7.00;99.90;;;;;;4952504;29;20488;-65
2021/04/21 05:03:48;;;;;;;27.25;17.15;;;7.10;99.90;;;;;;4952074;28;20122;-64
2021/04/21 05:06:22;;;;;;;30.08;13.68;;;7.20;99.90;;;;;;4953461;28;20086;-65
2021/04/21 05:08:52;;;;;;;24.98;13.80;;;7.20;99.90;;;;;;4952045;29;20030;-64
2021/04/21 05:11:21;;;;;;;26.80;14.15;;;7.40;99.90;;;;;;4953844;28;20378;-65
2021/04/21 05:13:48;;;;;;;26.10;14.35;;;7.40;99.90;;;;;;4953478;28;20101;-65
2021/04/21 05:16:55;;;;;;;25.95;14.60;;;7.50;99.90;;;;;;4952502;29;20031;-65
2021/04/21 05:19:42;;;;;;;28.95;14.38;;;7.60;99.90;;;;;;4953490;28;20350;-63
2021/04/21 05:22:45;;;;;;;26.92;14.68;;;7.60;99.90;;;;;;4968486;28;20193;-66
2021/04/21 05:25:20;;;;;;;30.20;14.63;;;7.80;99.90;;;;;;4954166;29;20107;-65
2021/04/21 05:28:01;;;;;;;29.20;14.77;;;7.80;99.90;;;;;;4953234;28;20035;-65
2021/04/21 05:31:09;;;;;;;26.17;14.60;;;7.90;99.90;;;;;;4956098;28;20037;-65
2021/04/21 05:33:37;;;;;;;;;;;8.00;99.90;;;;;;4957844;28;20474;-65
2021/04/21 05:36:26;;;;;;;;;;;8.10;99.90;;;;;;4958325;28;19958;-65
2021/04/21 05:39:17;;;;;;;24.67;14.77;;;8.20;99.90;;;;;;4971948;28;19913;-65
2021/04/21 05:42:31;;;;;;;25.00;13.88;;;8.30;99.90;;;;;;4972003;28;20166;-64
2021/04/21 05:45:21;;;;;;;26.58;14.50;;;8.40;99.90;;;;;;4957332;29;20058;-64
2021/04/21 05:47:57;;;;;;;26.95;15.40;;;8.50;99.90;;;;;;4957002;29;20393;-64
2021/04/21 05:50:41;;;;;;;34.13;15.60;;;8.60;99.90;;;;;;4971662;28;20054;-64
2021/04/21 05:53:31;;;;;;;27.52;14.45;;;8.70;99.90;;;;;;4956784;29;20023;-68
2021/04/21 05:56:27;;;;;;;26.63;14.13;;;8.80;99.90;;;;;;4956722;28;20034;-64
2021/04/21 05:59:32;;;;;;;40.05;15.50;;;8.90;99.90;;;;;;4956787;28;20454;-64
2021/04/21 06:02:00;;;;;;;27.42;14.85;;;9.00;99.90;;;;;;4971587;28;20086;-63
2021/04/21 06:04:25;;;;;;;31.92;14.73;;;9.00;99.90;;;;;;4956741;28;20019;-64
2021/04/21 06:07:08;;;;;;;23.80;12.77;;;9.10;99.90;;;;;;4956649;28;20034;-64
2021/04/21 06:09:37;;;;;;;28.20;15.50;;;9.30;99.90;;;;;;4956394;28;20058;-64
2021/04/21 06:12:12;;;;;;;25.98;14.82;;;9.30;99.90;;;;;;4956693;28;20050;-65
2021/04/21 06:14:40;;;;;;;26.65;13.73;;;9.30;99.90;;;;;;4956920;28;20114;-65
2021/04/21 06:17:07;;;;;;;24.00;14.05;;;9.50;99.90;;;;;;4956562;28;20596;-65
2021/04/21 06:19:32;;;;;;;25.85;15.30;;;9.50;99.90;;;;;;4987583;28;20070;-65
2021/04/21 06:21:58;;;;;;;26.02;13.88;;;9.60;99.90;;;;;;4956722;28;20059;-63
2021/04/21 06:24:26;;;;;;;28.90;14.07;;;9.70;99.90;;;;;;4956429;28;20517;-64
2021/04/21 06:27:06;;;;;;;27.00;14.33;;;9.80;99.90;;;;;;4956501;28;20031;-65
2021/04/21 06:29:32;;;;;;;27.15;15.25;;;9.90;99.90;;;;;;4956382;28;20481;-66
2021/04/21 06:32:02;;;;;;;22.70;13.45;;;10.00;99.90;;;;;;4956643;28;20057;-65
2021/04/21 06:34:27;;;;;;;29.55;16.27;;;10.00;99.90;;;;;;4982245;28;20119;-64
2021/04/21 06:36:58;;;;;;;26.35;14.27;;;10.20;99.90;;;;;;4973302;28;20117;-63
2021/04/21 06:39:25;;;;;;;27.08;15.10;;;10.20;99.90;;;;;;4957043;28;20030;-65
2021/04/21 06:41:55;;;;;;;23.70;14.27;;;10.30;99.90;;;;;;4955220;28;20041;-65
2021/04/21 06:44:31;;;;;;;26.00;14.43;;;10.40;99.90;;;;;;4955749;28;20154;-64
2021/04/21 06:46:58;;;;;;;24.40;14.90;;;;;;;;;;4955474;28;20174;-64
2021/04/21 06:49:24;;;;;;;25.63;15.27;;;;;;;;;;4952998;28;20042;-65
2021/04/21 06:51:50;;;;;;;29.48;15.82;;;10.50;99.90;;;;;;4955753;28;20023;-64
2021/04/21 06:54:19;;;;;;;25.55;15.07;;;10.90;99.90;;;;;;4955791;28;20023;-63
2021/04/21 06:56:49;;;;;;;26.27;16.10;;;11.00;99.90;;;;;;4954428;28;20035;-64
2021/04/21 06:59:19;;;;;;;30.27;14.57;;;11.10;99.90;;;;;;4976830;23;20046;-55
2021/04/21 07:01:51;;;;;;;21.98;14.80;;;11.10;99.90;;;;;;4943487;29;20107;-56
2021/04/21 07:04:19;;;;;;;24.65;14.63;;;11.20;99.90;;;;;;4966603;28;20050;-57
2021/04/21 07:06:46;;;;;;;27.83;17.15;;;11.30;99.90;;;;;;4959978;28;20041;-60
2021/04/21 07:09:13;;;;;;;23.30;14.10;;;;;;;;;;4974947;28;20473;-59
2021/04/21 07:11:39;;;;;;;27.15;16.02;;;;;;;;;;4973981;28;20030;-61
2021/04/21 07:14:06;;;;;;;25.50;16.10;;;11.40;99.90;;;;;;4970992;28;20485;-59
2021/04/21 07:16:32;;;;;;;29.77;15.95;;;11.80;99.90;;;;;;4986840;28;20393;-60
2021/04/21 07:18:59;;;;;;;26.77;15.40;;;11.90;99.90;;;;;;4970482;28;20434;-59
2021/04/21 07:21:29;;;;;;;23.90;16.08;;;12.00;99.90;;;;;;4956246;28;20034;-57
2021/04/21 07:23:58;;;;;;;23.90;14.65;;;12.00;99.90;;;;;;4986627;28;20382;-57
2021/04/21 07:26:34;;;;;;;23.08;14.75;;;12.10;99.90;;;;;;4955587;28;20050;-59
2021/04/21 07:29:00;;;;;;;26.80;16.13;;;12.20;99.90;;;;;;4962145;28;20463;-60
2021/04/21 07:31:26;;;;;;;24.05;14.95;;;12.20;99.90;;;;;;4973338;28;20034;-60
2021/04/21 07:33:52;;;;;;;25.58;17.45;;;12.20;99.90;;;;;;4973024;28;20170;-59
2021/04/21 07:36:27;;;;;;;28.75;18.95;;;12.30;99.90;;;;;;4974228;28;20026;-59
2021/04/21 07:39:04;;;;;;;26.75;16.88;;;12.40;99.90;;;;;;4973669;28;20034;-61
2021/04/21 07:41:42;;;;;;;27.27;18.90;;;12.50;99.90;;;;;;4974979;28;20026;-61
2021/04/21 07:44:28;;;;;;;24.65;16.23;;;12.70;99.90;;;;;;4973468;28;20023;-61
2021/04/21 07:46:59;;;;;;;22.63;16.00;;;12.80;99.90;;;;;;4973238;28;20023;-61
2021/04/21 07:49:30;;;;;;;23.38;16.77;;;12.90;99.90;;;;;;4973011;28;20026;-59
2021/04/21 07:51:56;;;;;;;22.88;15.32;;;13.00;99.90;;;;;;4972915;28;20034;-58
2021/04/21 07:54:23;;;;;;;21.20;16.42;;;13.10;99.90;;;;;;4972687;28;20519;-61
2021/04/21 07:56:55;;;;;;;25.33;14.80;;;13.30;99.90;;;;;;4973306;28;20109;-60
2021/04/21 07:59:23;;;;;;;20.58;15.15;;;13.40;99.90;;;;;;4973242;28;20077;-60
2021/04/21 08:01:50;;;;;;;;;;;13.50;99.90;;;;;;4974162;28;20044;-60
2021/04/21 08:04:27;;;;;;;20.75;15.15;;;13.60;99.90;;;;;;4973062;28;19910;-60
2021/04/21 08:06:58;;;;;;;22.80;16.58;;;13.60;99.90;;;;;;4973045;28;20085;-58
2021/04/21 08:09:25;;;;;;;25.33;16.73;;;13.70;99.90;;;;;;4974311;28;20033;-57
2021/04/21 08:12:10;;;;;;;22.40;16.17;;;13.80;99.90;;;;;;4974649;28;20031;-59
2021/04/21 08:14:41;;;;;;;22.48;15.95;;;13.90;99.90;;;;;;4974496;28;20026;-58
2021/04/21 08:17:07;;;;;;;19.65;14.85;;;14.10;99.90;;;;;;4973407;28;20034;-62
2021/04/21 08:19:41;;;;;;;22.25;15.30;;;14.20;97.60;;;;;;4972913;28;20027;-61
2021/04/21 08:22:08;;;;;;;23.13;15.43;;;14.20;98.00;;;;;;4974474;28;20031;-60
2021/04/21 08:24:45;;;;;;;22.23;15.27;;;14.30;96.10;;;;;;5069833;28;20369;-61
2021/04/21 08:27:13;;;;;;;19.70;15.65;;;14.30;94.30;;;;;;5068469;28;20020;-61
2021/04/21 08:29:40;;;;;;;20.65;15.10;;;14.20;95.60;;;;;;5068138;28;20021;-63
2021/04/21 08:32:06;;;;;;;22.30;15.98;;;14.30;94.40;;;;;;5068295;28;20449;-62
2021/04/21 08:34:32;;;;;;;24.63;15.20;;;14.50;95.00;;;;;;5068527;28;20400;-62
2021/04/21 08:36:57;;;;;;;21.23;14.50;;;14.60;92.60;;;;;;5097494;22;20040;-63
2021/04/21 08:39:23;;;;;;;23.52;15.32;;;14.50;91.30;;;;;;5104135;28;20021;-59
2021/04/21 08:41:55;;;;;;;19.85;13.32;;;14.60;89.60;;;;;;5089104;28;20016;-61
2021/04/21 08:44:23;;;;;;;19.13;14.70;;;14.70;90.10;;;;;;5089022;28;20025;-60
2021/04/21 08:46:50;;;;;;;20.95;14.75;;;14.70;89.80;;;;;;5088833;28;20033;-59
2021/04/21 08:49:17;;;;;;;22.85;16.13;;;14.80;90.20;;;;;;5048637;28;20029;-62
2021/04/21 08:51:43;;;;;;;23.52;15.70;;;14.80;88.10;;;;;;5048723;28;20104;-59
2021/04/21 08:54:12;;;;;;;23.42;16.55;;;14.90;89.40;;;;;;5047624;28;20100;-61
2021/04/21 08:56:42;;;;;;;20.05;15.30;;;14.90;86.60;;;;;;5061714;28;20052;-63
2021/04/21 08:59:09;;;;;;;19.98;13.68;;;14.90;85.20;;;;;;5068186;28;20025;-60
2021/04/21 09:01:35;;;;;;;19.57;14.00;;;15.00;83.70;;;;;;5068629;28;20066;-60
2021/04/21 09:04:02;;;;;;;18.73;13.55;;;15.10;82.20;;;;;;5065840;28;20373;-63
2021/04/21 09:06:27;;;;;;;19.00;13.70;;;15.10;80.70;;;;;;5067742;28;20028;-61
2021/04/21 09:08:55;;;;;;;19.98;15.07;;;15.20;81.60;;;;;;5051361;28;20428;-63
2021/04/21 09:11:23;;;;;;;21.92;14.32;;;15.20;79.80;;;;;;5047149;28;20032;-62
2021/04/21 09:13:49;;;;;;;20.48;13.73;;;15.40;79.80;;;;;;5049221;28;20420;-63
2021/04/21 09:16:18;;;;;;;20.90;13.40;;;15.50;78.50;;;;;;5066770;28;20078;-63
2021/04/21 09:18:44;;;;;;;20.80;13.57;;;15.60;77.90;;;;;;5066610;28;20025;-61
2021/04/21 09:21:23;;;;;;;18.98;13.98;;;15.70;79.30;;;;;;5069247;28;20028;-60
2021/04/21 09:23:49;;;;;;;19.70;14.63;;;15.80;77.90;;;;;;5066720;28;20090;-57
2021/04/21 09:26:27;;;;;;;19.95;13.65;;;15.90;76.70;;;;;;5068159;28;20214;-61
2021/04/21 09:28:54;;;;;;;19.55;13.30;;;15.90;74.40;;;;;;5067668;28;20024;-61
2021/04/21 09:31:22;;;;;;;20.55;14.25;;;15.90;76.20;;;;;;5067829;28;20048;-60
2021/04/21 09:34:06;;;;;;;20.48;14.13;;;16.00;76.30;;;;;;5066164;28;20044;-63
2021/04/21 09:36:46;;;;;;;22.92;14.93;;;16.10;76.90;;;;;;5032881;28;20053;-63
2021/04/21 09:39:23;;;;;;;21.33;14.85;;;16.20;77.40;;;;;;5032496;28;20116;-58
2021/04/21 09:41:59;;;;;;;23.88;15.55;;;16.40;78.50;;;;;;5034553;28;20021;-62
2021/04/21 09:44:29;;;;;;;21.63;16.15;;;16.70;78.10;;;;;;5034425;28;20108;-58
2021/04/21 09:46:57;;;;;;;23.35;16.00;;;16.70;78.00;;;;;;5034133;28;20022;-59
2021/04/21 09:49:30;;;;;;;23.97;16.70;;;16.90;78.40;;;;;;5034123;28;20025;-62
2021/04/21 09:52:21;;;;;;;20.73;15.63;;;16.80;78.00;;;;;;5036387;28;20462;-61
2021/04/21 09:54:47;;;;;;;22.38;16.67;;;16.80;77.70;;;;;;5035880;28;20044;-64
2021/04/21 09:57:32;;;;;;;19.90;15.48;;;16.60;78.80;;;;;;5036698;28;20451;-60
2021/04/21 10:00:05;;;;;;;27.27;16.80;;;16.90;78.20;;;;;;5054318;28;20052;-60
2021/04/21 10:02:36;;;;;;;23.15;16.67;;;16.80;78.00;;;;;;5051970;28;20052;-62
2021/04/21 10:05:33;;;;;;;21.50;16.30;;;16.70;79.00;;;;;;5053973;28;20392;-61
2021/04/21 10:08:18;;;;;;;20.67;15.07;;;16.90;79.70;;;;;;5053515;28;20021;-61
2021/04/21 10:10:47;;;;;;;21.45;15.63;;;16.70;78.30;;;;;;5051881;28;20025;-59
2021/04/21 10:13:12;;;;;;;;;;;16.80;78.10;;;;;;5053144;28;20547;-62
2021/04/21 10:15:38;;;;;;;25.42;16.92;;;16.80;76.60;;;;;;5053973;28;19995;-63
2021/04/21 10:18:05;;;;;;;24.90;15.60;;;16.80;77.90;;;;;;5052942;28;20025;-63
2021/04/21 10:20:31;;;;;;;22.02;15.93;;;16.90;76.70;;;;;;5052853;28;20090;-63
2021/04/21 10:22:57;;;;;;;22.20;16.27;;;16.80;75.70;;;;;;5051864;28;20036;-61
2021/04/21 10:25:23;;;;;;;24.38;15.35;;;16.80;76.10;;;;;;5052566;28;20021;-62
2021/04/21 10:27:50;;;;;;;20.85;14.57;;;;;;;;;;5053476;28;20024;-63
2021/04/21 10:30:16;;;;;;;21.33;14.70;;;;;;;;;;5052494;28;20032;-63
2021/04/21 10:32:42;;;;;;;22.17;14.73;;;;;;;;;;5051977;28;20036;-63
2021/04/21 10:35:09;;;;;;;23.98;16.23;;;;;;;;;;5044497;28;20036;-63
2021/04/21 10:37:36;;;;;;;22.98;17.25;;;;;;;;;;5033257;28;20507;-62
2021/04/21 10:40:02;;;;;;;21.05;16.05;;;;;;;;;;5031984;28;20130;-62
2021/04/21 10:42:28;;;;;;;22.02;16.02;;;;;;;;;;5031765;28;20025;-63
2021/04/21 10:45:12;;;;;;;19.52;14.25;;;;;;;;;;5032137;28;20022;-62
2021/04/21 10:47:52;;;;;;;23.20;14.48;;;16.80;76.50;;;;;;5032837;28;20028;-63
2021/04/21 10:50:45;;;;;;;23.30;15.30;;;18.90;64.60;;;;;;5033316;28;20101;-63
2021/04/21 10:53:46;;;;;;;21.17;15.50;;;18.70;67.40;;;;;;5033012;28;20151;-64
2021/04/21 10:56:24;;;;;;;22.27;15.82;;;18.40;69.20;;;;;;5033031;28;20029;-62
2021/04/21 10:58:57;;;;;;;23.30;16.08;;;18.50;69.20;;;;;;5031602;28;20029;-61
2021/04/21 11:01:30;;;;;;;22.13;16.40;;;;;;;;;;5032654;28;20413;-63
2021/04/21 11:03:57;;;;;;;23.40;16.10;;;;;;;;;;5035853;28;20048;-61
2021/04/21 11:06:40;;;;;;;21.52;16.20;;;18.20;68.40;;;;;;5042705;28;20021;-63
2021/04/21 11:09:10;;;;;;;24.88;17.02;;;18.50;70.10;;;;;;5042026;28;20028;-63
2021/04/21 11:11:37;;;;;;;22.75;16.75;;;;;;;;;;5032932;28;20441;-62
2021/04/21 11:14:03;;;;;;;27.13;18.38;;;;;;;;;;5032498;28;20025;-63
2021/04/21 11:16:32;;;;;;;23.00;16.33;;;;;;;;;;5032708;28;20025;-62
2021/04/21 11:19:17;;;;;;;29.17;17.23;;;;;;;;;;5032274;28;20032;-62
2021/04/21 11:21:43;;;;;;;21.27;16.08;;;;;;;;;;5032665;28;20029;-63
2021/04/21 11:24:10;;;;;;;21.17;16.08;;;;;;;;;;5032339;28;20420;-63
2021/04/21 11:26:38;;;;;;;23.90;16.30;;;;;;;;;;4692138;28;10000440;-63
2021/04/21 11:29:19;;;;;;;22.90;16.73;;;;;;;;;;5035671;28;20025;-62
2021/04/21 11:31:46;;;;;;;21.52;17.13;;;;;;;;;;5035556;28;20033;-63
2021/04/21 11:34:32;;;;;;;23.45;17.65;;;;;;;;;;5036867;28;20029;-62
2021/04/21 11:37:01;;;;;;;23.20;18.35;;;;;;;;;;5040451;28;20044;-62
2021/04/21 11:39:42;;;;;;;23.98;18.83;;;;;;;;;;5048250;28;20104;-62
2021/04/21 11:42:28;;;;;;;23.50;18.17;;;18.80;70.50;;;;;;5038195;28;20481;-62
2021/04/21 11:45:08;;;;;;;22.40;17.48;;;25.10;56.30;;;;;;5031385;28;20040;-61
2021/04/21 11:47:37;;;;;;;22.48;16.98;;;25.20;55.20;;;;;;5038503;28;20057;-63
2021/04/21 11:50:05;;;;;;;21.75;17.27;;;;;;;;;;5036469;28;20367;-63
2021/04/21 11:52:46;;;;;;;24.38;18.50;;;;;;;;;;5039423;28;20095;-59
2021/04/21 11:55:21;;;;;;;22.95;17.92;;;;;;;;;;5038805;28;20032;-62
2021/04/21 11:58:33;;;;;;;22.10;17.70;;;24.70;54.70;;;;;;5038768;28;20025;-63
2021/04/21 12:01:02;;;;;;;24.85;19.00;;;;;;;;;;5040344;28;20045;-60
2021/04/21 12:03:29;;;;;;;24.83;18.10;;;;;;;;;;5046205;28;20649;-62
2021/04/21 12:06:00;;;;;;;24.30;18.70;;;22.10;54.20;;;;;;5038607;28;20018;-62
2021/04/21 12:08:27;;;;;;;23.40;18.77;;;;;;;;;;5045631;28;20013;-62
2021/04/21 12:10:53;;;;;;;23.08;18.95;;;;;;;;;;5046873;28;20027;-62
2021/04/21 12:13:20;;;;;;;22.88;19.52;;;23.60;56.00;;;;;;5048196;28;20555;-62
2021/04/21 12:15:47;;;;;;;23.58;18.88;;;;;;;;;;5046329;28;20507;-62
2021/04/21 12:18:33;;;;;;;21.33;17.83;;;;;;;;;;5046834;28;20143;-62
2021/04/21 12:21:00;;;;;;;22.85;18.00;;;;;;;;;;5041668;28;20421;-61
2021/04/21 12:23:26;;;;;;;24.05;18.02;;;;;;;;;;5047196;28;20321;-62
2021/04/21 12:25:52;;;;;;;22.85;17.75;;;23.50;55.10;;;;;;5037341;28;20428;-63
2021/04/21 12:28:18;;;;;;;21.77;18.02;;;25.80;52.60;;;;;;5047605;28;20017;-63
2021/04/21 12:30:52;;;;;;;21.00;18.35;;;26.70;51.50;;;;;;5049489;28;20021;-62
2021/04/21 12:33:18;;;;;;;23.17;18.85;;;;;;;;;;5051738;28;20025;-61
2021/04/21 12:35:44;;;;;;;24.23;16.75;;;;;;;;;;5044425;28;20106;-62
2021/04/21 12:38:10;;;;;;;22.83;17.77;;;;;;;;;;5051180;28;20449;-61
2021/04/21 12:40:36;;;;;;;24.75;18.00;;;;;;;;;;5051517;28;20025;-61
2021/04/21 12:43:12;;;;;;;23.35;17.85;;;26.60;51.40;;;;;;5051760;28;20460;-61
2021/04/21 12:45:39;;;;;;;21.45;17.30;;;22.70;54.50;;;;;;5049429;28;20029;-61
2021/04/21 12:48:23;;;;;;;23.35;16.90;;;22.30;54.80;;;;;;5052151;28;20171;-63
2021/04/21 12:50:50;;;;;;;24.77;16.85;;;;;;;;;;5051175;28;20029;-60
2021/04/21 12:53:18;;;;;;;23.20;17.40;;;;;;;;;;5051198;28;20155;-61
2021/04/21 12:55:44;;;;;;;20.92;16.15;;;;;;;;;;5051168;28;20021;-60
2021/04/21 12:58:11;;;;;;;22.35;17.17;;;23.20;53.50;;;;;;5050496;28;20485;-60
2021/04/21 13:00:37;;;;;;;20.85;17.10;;;23.50;51.70;;;;;;5051224;28;20452;-60
2021/04/21 13:03:03;;;;;;;23.63;17.10;;;23.40;52.60;;;;;;5050989;28;20104;-61
2021/04/21 13:06:04;;;;;;;21.30;16.52;;;23.80;52.10;;;;;;5051266;28;20013;-61
2021/04/21 13:08:31;;;;;;;23.00;18.35;;;24.00;51.50;;;;;;5028830;28;20032;-61
2021/04/21 13:10:59;;;;;;;21.10;17.52;;;;;;;;;;4694373;28;10000492;-61
2021/04/21 13:13:29;;;;;;;20.75;16.58;;;;;;;;;;5042595;28;20022;-61
2021/04/21 13:15:56;;;;;;;26.50;17.48;;;;;;;;;;5042976;28;20028;-61
2021/04/21 13:18:29;;;;;;;24.65;17.83;;;22.90;52.30;;;;;;5042329;28;20063;-61
2021/04/21 13:20:55;;;;;;;28.42;19.52;;;;;;;;;;5042866;28;20040;-60